createdAt,value
2023-03-27T00:01:34.636Z,4.63
2023-03-27T00:04:02.598Z,4.58
2023-03-27T00:06:34.578Z,4.63
2023-03-27T00:09:03.663Z,4.65
2023-03-27T00:11:31.856Z,4.73
2023-03-27T00:13:59.979Z,4.50
2023-03-27T00:16:30.554Z,4.51
2023-03-27T00:18:58.703Z,4.17
2023-03-27T00:21:27.008Z,3.96
2023-03-27T00:23:56.753Z,4.21
2023-03-27T00:26:24.881Z,4.33
2023-03-27T00:28:54.774Z,4.61
2023-03-27T00:31:22.749Z,4.51
2023-03-27T00:33:52.067Z,4.47
2023-03-27T00:36:20.185Z,4.21
2023-03-27T00:38:47.984Z,4.12
2023-03-27T00:41:15.849Z,4.15
2023-03-27T00:43:44.645Z,4.28
2023-03-27T00:46:32.296Z,4.18
2023-03-27T00:49:07.346Z,4.19
2023-03-27T00:51:40.083Z,4.21
2023-03-27T00:54:09.824Z,3.94
2023-03-27T00:56:38.938Z,3.79
2023-03-27T00:59:14.962Z,3.81
2023-03-27T01:01:46.074Z,3.90
2023-03-27T01:04:21.409Z,3.96
2023-03-27T01:06:53.642Z,3.87
2023-03-27T01:09:21.488Z,3.80
2023-03-27T01:12:08.689Z,3.91
2023-03-27T01:14:49.433Z,3.87
2023-03-27T01:17:38.217Z,3.88
2023-03-27T01:20:38.293Z,3.97
2023-03-27T01:24:16.652Z,3.90
2023-03-27T01:27:10.631Z,3.94
2023-03-27T01:30:11.930Z,3.95
2023-03-27T01:33:43.748Z,3.97
2023-03-27T01:37:02.633Z,4.06
2023-03-27T01:39:51.390Z,3.96
2023-03-27T01:42:26.744Z,3.95
2023-03-27T01:45:05.199Z,4.02
2023-03-27T01:47:47.622Z,3.75
2023-03-27T01:50:24.832Z,4.07
2023-03-27T01:53:01.296Z,4.06
2023-03-27T01:55:36.428Z,3.83
2023-03-27T01:58:13.835Z,3.88
2023-03-27T02:00:53.149Z,4.16
2023-03-27T02:03:27.797Z,3.94
2023-03-27T02:06:02.518Z,4.21
2023-03-27T02:08:38.327Z,4.15
2023-03-27T02:11:08.243Z,3.72
2023-03-27T02:13:42.969Z,3.97
2023-03-27T02:16:18.440Z,3.84
2023-03-27T02:18:56.679Z,3.73
2023-03-27T02:21:25.096Z,4.05
2023-03-27T02:23:54.038Z,3.83
2023-03-27T02:26:23.872Z,3.81
2023-03-27T02:29:20.177Z,3.77
2023-03-27T02:32:09.165Z,3.91
2023-03-27T02:34:58.755Z,3.84
2023-03-27T02:37:40.640Z,3.77
2023-03-27T02:40:21.192Z,3.69
2023-03-27T02:43:07.350Z,3.91
2023-03-27T02:45:53.220Z,4.10
2023-03-27T02:48:34.312Z,3.80
2023-03-27T02:51:08.306Z,3.63
2023-03-27T02:53:42.785Z,3.81
2023-03-27T02:56:14.810Z,4.18
2023-03-27T02:58:50.985Z,4.28
2023-03-27T03:01:23.626Z,3.84
2023-03-27T03:04:00.239Z,4.13
2023-03-27T03:06:30.653Z,3.93
2023-03-27T03:09:03.586Z,3.94
2023-03-27T03:11:31.974Z,3.97
2023-03-27T03:14:01.821Z,3.95
2023-03-27T03:16:31.283Z,4.12
2023-03-27T03:18:59.179Z,4.19
2023-03-27T03:21:27.009Z,4.15
2023-03-27T03:23:57.888Z,3.90
2023-03-27T03:26:28.042Z,4.10
2023-03-27T03:29:01.021Z,4.13
2023-03-27T03:31:43.160Z,4.02
2023-03-27T03:34:13.425Z,3.79
2023-03-27T03:36:42.962Z,3.59
2023-03-27T03:39:12.513Z,3.91
2023-03-27T03:41:40.497Z,3.60
2023-03-27T03:44:08.365Z,3.92
2023-03-27T03:46:37.790Z,3.93
2023-03-27T03:49:06.709Z,3.71
2023-03-27T03:51:35.728Z,3.58
2023-03-27T03:54:05.398Z,3.79
2023-03-27T03:56:34.505Z,3.68
2023-03-27T03:59:02.862Z,3.64
2023-03-27T04:01:31.092Z,3.69
2023-03-27T04:04:00.634Z,3.86
2023-03-27T04:06:30.857Z,3.92
2023-03-27T04:08:59.283Z,3.91
2023-03-27T04:11:27.144Z,3.69
2023-03-27T04:13:55.290Z,3.79
2023-03-27T04:16:23.667Z,4.06
2023-03-27T04:18:54.353Z,4.04
2023-03-27T04:21:26.752Z,3.67
2023-03-27T04:23:54.700Z,3.97
2023-03-27T04:26:26.543Z,4.08
2023-03-27T04:28:54.877Z,4.14
2023-03-27T04:31:22.676Z,3.81
2023-03-27T04:33:51.851Z,3.59
2023-03-27T04:36:20.852Z,3.60
2023-03-27T04:38:52.778Z,3.81
2023-03-27T04:41:22.312Z,3.88
2023-03-27T04:43:50.883Z,3.78
2023-03-27T04:46:18.778Z,3.60
2023-03-27T04:48:47.072Z,3.88
2023-03-27T04:51:15.096Z,3.98
2023-03-27T04:53:43.248Z,3.95
2023-03-27T04:56:12.528Z,3.70
2023-03-27T04:58:41.586Z,4.00
2023-03-27T05:01:10.056Z,3.95
2023-03-27T05:03:39.090Z,3.96
2023-03-27T05:06:08.380Z,3.89
2023-03-27T05:08:36.364Z,3.74
2023-03-27T05:11:04.423Z,4.04
2023-03-27T05:13:33.758Z,4.21
2023-03-27T05:16:02.801Z,4.13
2023-03-27T05:18:31.043Z,4.07
2023-03-27T05:20:59.204Z,4.01
2023-03-27T05:23:27.266Z,4.22
2023-03-27T05:26:00.074Z,4.42
2023-03-27T05:28:29.250Z,4.34
2023-03-27T05:30:59.370Z,4.47
2023-03-27T05:33:28.090Z,3.74
2023-03-27T05:35:57.359Z,3.53
2023-03-27T05:38:26.509Z,3.77
2023-03-27T05:40:54.783Z,3.63
2023-03-27T05:43:22.881Z,3.87
2023-03-27T05:45:50.755Z,4.07
2023-03-27T05:48:20.057Z,4.05
2023-03-27T05:50:48.565Z,4.02
2023-03-27T05:53:16.398Z,4.64
2023-03-27T05:55:46.357Z,4.48
2023-03-27T05:58:15.049Z,4.13
2023-03-27T06:00:44.445Z,4.68
2023-03-27T06:03:14.637Z,4.65
2023-03-27T06:05:44.099Z,4.73
2023-03-27T06:08:12.037Z,4.42
2023-03-27T06:10:43.236Z,4.64
2023-03-27T06:13:13.850Z,4.63
2023-03-27T06:15:43.428Z,4.48
2023-03-27T06:18:12.701Z,4.43
2023-03-27T06:20:43.403Z,4.93
2023-03-27T06:23:11.244Z,5.13
2023-03-27T06:25:40.271Z,4.98
2023-03-27T06:28:09.925Z,5.18
2023-03-27T06:30:38.889Z,5.71
2023-03-27T06:33:08.583Z,5.84
2023-03-27T06:35:37.152Z,6.55
2023-03-27T06:38:07.103Z,6.96
2023-03-27T06:40:36.517Z,7.41
2023-03-27T06:43:06.887Z,7.62
2023-03-27T06:45:38.693Z,7.83
2023-03-27T06:48:16.056Z,8.46
2023-03-27T06:50:49.783Z,8.63
2023-03-27T06:53:27.258Z,9.14
2023-03-27T06:55:57.790Z,9.82
2023-03-27T06:58:52.884Z,9.05
2023-03-27T07:01:20.849Z,10.14
2023-03-27T07:03:48.760Z,10.62
2023-03-27T07:06:16.607Z,10.81
2023-03-27T07:08:47.720Z,11.25
2023-03-27T07:11:17.041Z,10.79
2023-03-27T07:13:45.229Z,10.85
2023-03-27T07:16:13.069Z,11.20
2023-03-27T07:18:41.937Z,11.60
2023-03-27T07:21:10.144Z,11.37
2023-03-27T07:23:37.979Z,11.80
2023-03-27T07:26:08.785Z,11.80
2023-03-27T07:28:38.706Z,11.64
2023-03-27T07:31:29.378Z,12.31
2023-03-27T07:33:59.788Z,11.81
2023-03-27T07:36:28.828Z,11.57
2023-03-27T07:38:56.963Z,12.22
2023-03-27T07:41:26.588Z,12.22
2023-03-27T07:43:54.529Z,12.01
2023-03-27T07:46:24.378Z,12.34
2023-03-27T07:48:52.676Z,12.68
2023-03-27T07:51:20.931Z,12.41
2023-03-27T07:53:53.925Z,12.64
2023-03-27T07:56:23.653Z,13.25
2023-03-27T07:58:55.224Z,13.32
2023-03-27T08:01:23.855Z,12.90
2023-03-27T08:03:52.257Z,13.45
2023-03-27T08:06:20.590Z,13.13
2023-03-27T08:08:50.795Z,13.12
2023-03-27T08:11:51.887Z,13.83
2023-03-27T08:14:21.128Z,13.62
2023-03-27T08:16:49.609Z,13.42
2023-03-27T08:19:18.601Z,14.14
2023-03-27T08:21:57.354Z,13.91
2023-03-27T08:24:25.364Z,13.72
2023-03-27T08:26:53.106Z,14.12
2023-03-27T08:29:22.595Z,14.35
2023-03-27T08:31:52.839Z,14.32
2023-03-27T08:34:21.666Z,13.40
2023-03-27T08:36:49.503Z,14.47
2023-03-27T08:39:17.752Z,14.81
2023-03-27T08:41:55.078Z,14.92
2023-03-27T08:44:29.039Z,14.36
2023-03-27T08:47:04.083Z,14.13
2023-03-27T08:49:37.604Z,14.83
2023-03-27T08:52:15.609Z,14.75
2023-03-27T08:54:47.240Z,14.65
2023-03-27T08:57:20.860Z,13.88
2023-03-27T08:59:55.974Z,14.10
2023-03-27T09:02:40.922Z,15.32
2023-03-27T09:05:18.694Z,14.44
2023-03-27T09:08:05.193Z,14.81
2023-03-27T09:10:44.612Z,14.08
2023-03-27T09:13:19.893Z,13.64
2023-03-27T09:15:59.333Z,14.06
2023-03-27T09:18:34.152Z,15.24
2023-03-27T09:21:11.453Z,15.23
2023-03-27T09:23:44.576Z,14.74
2023-03-27T09:26:17.848Z,14.30
2023-03-27T09:28:51.370Z,14.51
2023-03-27T09:31:29.008Z,14.97
2023-03-27T09:34:01.727Z,14.75
2023-03-27T09:36:29.972Z,13.56
2023-03-27T09:39:05.817Z,12.08
2023-03-27T09:41:42.664Z,11.33
2023-03-27T09:44:14.354Z,10.94
2023-03-27T09:46:49.914Z,10.23
2023-03-27T09:49:20.860Z,10.82
2023-03-27T09:51:52.309Z,11.70
2023-03-27T09:54:23.389Z,11.69
2023-03-27T09:56:55.422Z,12.61
2023-03-27T09:59:29.558Z,12.77
2023-03-27T10:02:02.096Z,13.60
2023-03-27T10:04:30.217Z,14.05
2023-03-27T10:07:01.992Z,14.32
2023-03-27T10:09:34.340Z,14.33
2023-03-27T10:12:10.711Z,13.62
2023-03-27T10:14:44.798Z,12.65
2023-03-27T10:17:25.362Z,12.14
2023-03-27T10:20:01.193Z,11.51
2023-03-27T10:22:35.034Z,10.47
2023-03-27T10:25:09.604Z,10.15
2023-03-27T10:27:40.555Z,9.48
2023-03-27T10:30:28.445Z,8.11
2023-03-27T10:32:57.986Z,8.11
2023-03-27T10:35:32.657Z,7.96
2023-03-27T10:38:03.259Z,7.62
2023-03-27T10:40:36.178Z,7.81
2023-03-27T10:43:20.064Z,7.96
2023-03-27T10:45:54.461Z,7.74
2023-03-27T10:48:43.399Z,8.70
2023-03-27T10:51:45.587Z,9.48
2023-03-27T10:54:32.292Z,10.28
2023-03-27T10:57:05.988Z,11.55
2023-03-27T10:59:42.914Z,12.46
2023-03-27T11:02:18.831Z,13.49
2023-03-27T11:04:55.287Z,14.05
2023-03-27T11:07:33.670Z,14.44
2023-03-27T11:10:11.913Z,15.28
2023-03-27T11:12:49.599Z,15.47
2023-03-27T11:15:23.131Z,15.48
2023-03-27T11:18:02.569Z,14.39
2023-03-27T11:20:44.340Z,15.32
2023-03-27T11:23:22.899Z,14.55
2023-03-27T11:25:53.501Z,13.93
2023-03-27T11:28:32.337Z,13.75
2023-03-27T11:31:13.488Z,12.51
2023-03-27T11:33:52.997Z,12.54
2023-03-27T11:36:44.881Z,11.97
2023-03-27T11:39:22.755Z,11.28
2023-03-27T11:41:57.253Z,11.18
2023-03-27T11:44:30.247Z,10.49
2023-03-27T11:47:37.641Z,11.91
2023-03-27T11:50:26.076Z,12.63
2023-03-27T11:53:25.470Z,13.33
2023-03-27T11:56:15.700Z,13.44
2023-03-27T11:59:15.903Z,13.59
2023-03-27T12:01:57.816Z,14.03
2023-03-27T12:04:44.634Z,14.96
2023-03-27T12:07:36.947Z,15.16
2023-03-27T12:10:28.957Z,15.22
2023-03-27T12:13:58.294Z,14.86
2023-03-27T12:17:13.623Z,14.18
2023-03-27T12:20:12.026Z,13.62
2023-03-27T12:22:52.723Z,14.06
2023-03-27T12:25:48.782Z,14.56
2023-03-27T12:28:42.036Z,14.08
2023-03-27T12:31:30.331Z,14.22
2023-03-27T12:34:04.462Z,14.81
2023-03-27T12:36:39.311Z,14.77
2023-03-27T12:39:19.921Z,14.47
2023-03-27T12:41:51.752Z,12.36
2023-03-27T12:44:29.233Z,11.11
2023-03-27T12:47:18.535Z,9.63
2023-03-27T12:49:56.990Z,8.77
2023-03-27T12:52:26.795Z,8.65
2023-03-27T12:55:35.576Z,8.31
2023-03-27T12:58:07.173Z,8.27
2023-03-27T13:00:37.317Z,9.26
2023-03-27T13:03:44.290Z,10.49
2023-03-27T13:06:31.107Z,11.32
2023-03-27T13:09:33.808Z,12.27
2023-03-27T13:12:24.169Z,13.41
2023-03-27T13:15:23.955Z,13.64
2023-03-27T13:18:37.127Z,14.38
2023-03-27T13:21:23.017Z,13.99
2023-03-27T13:24:22.268Z,14.97
2023-03-27T13:27:13.115Z,14.89
2023-03-27T13:29:42.478Z,13.69
2023-03-27T13:32:35.939Z,13.38
2023-03-27T13:35:33.789Z,12.78
2023-03-27T13:38:02.486Z,12.89
2023-03-27T13:40:35.734Z,13.06
2023-03-27T13:43:18.251Z,13.08
2023-03-27T13:45:50.876Z,13.28
2023-03-27T13:49:05.703Z,12.61
2023-03-27T13:52:11.664Z,12.32
2023-03-27T13:55:22.824Z,11.52
2023-03-27T13:58:17.820Z,10.95
2023-03-27T14:01:09.564Z,10.40
2023-03-27T14:04:29.693Z,10.10
2023-03-27T14:07:47.268Z,10.67
2023-03-27T14:11:05.883Z,10.85
2023-03-27T14:13:52.154Z,10.89
2023-03-27T14:17:05.530Z,10.64
2023-03-27T14:20:14.194Z,10.70
2023-03-27T14:22:53.495Z,10.45
2023-03-27T14:25:27.292Z,10.25
2023-03-27T14:27:58.349Z,10.45
2023-03-27T14:30:28.279Z,10.18
2023-03-27T14:32:58.310Z,10.26
2023-03-27T14:35:45.547Z,10.42
2023-03-27T14:38:22.640Z,10.48
2023-03-27T14:40:52.416Z,10.28
2023-03-27T14:43:22.223Z,10.58
2023-03-27T14:45:54.461Z,10.53
2023-03-27T14:48:28.463Z,10.78
2023-03-27T14:51:03.235Z,10.87
2023-03-27T14:53:37.518Z,11.34
2023-03-27T14:56:12.943Z,10.97
2023-03-27T14:58:47.159Z,11.07
2023-03-27T15:01:17.382Z,11.08
2023-03-27T15:03:47.924Z,10.97
2023-03-27T15:06:21.084Z,10.52
2023-03-27T15:08:55.943Z,10.56
2023-03-27T15:11:27.198Z,10.32
2023-03-27T15:13:57.532Z,10.20
2023-03-27T15:16:28.430Z,10.31
2023-03-27T15:19:09.600Z,10.01
2023-03-27T15:21:50.956Z,10.18
2023-03-27T15:24:31.499Z,10.15
2023-03-27T15:27:02.635Z,9.70
2023-03-27T15:29:40.809Z,9.57
2023-03-27T15:32:14.999Z,9.48
2023-03-27T15:34:47.751Z,9.50
2023-03-27T15:37:23.258Z,9.36
2023-03-27T15:40:28.438Z,9.60
2023-03-27T15:43:04.996Z,9.68
2023-03-27T15:45:42.254Z,9.67
2023-03-27T15:48:21.188Z,9.83
2023-03-27T15:50:57.110Z,10.06
2023-03-27T15:53:36.185Z,10.00
2023-03-27T15:56:08.760Z,9.93
2023-03-27T15:58:48.257Z,9.72
2023-03-27T16:01:22.599Z,9.91
2023-03-27T16:03:52.284Z,10.09
2023-03-27T16:06:32.978Z,10.25
2023-03-27T16:09:04.505Z,9.79
2023-03-27T16:11:46.760Z,9.70
2023-03-27T16:14:29.314Z,9.61
2023-03-27T16:17:24.826Z,9.48
2023-03-27T16:19:56.490Z,9.48
2023-03-27T16:22:27.230Z,9.20
2023-03-27T16:24:58.048Z,9.35
2023-03-27T16:27:32.841Z,9.55
2023-03-27T16:30:00.916Z,9.77
2023-03-27T16:32:28.758Z,9.81
2023-03-27T16:34:59.123Z,9.64
2023-03-27T16:37:27.682Z,9.16
2023-03-27T16:39:59.219Z,8.92
2023-03-27T16:42:27.572Z,9.10
2023-03-27T16:44:55.920Z,8.88
2023-03-27T16:47:24.813Z,8.90
2023-03-27T16:50:10.391Z,8.70
2023-03-27T16:52:39.936Z,8.73
2023-03-27T16:55:12.953Z,8.36
2023-03-27T16:57:41.759Z,8.37
2023-03-27T17:00:13.027Z,7.91
2023-03-27T17:02:42.844Z,8.00
2023-03-27T17:05:11.953Z,7.72
2023-03-27T17:07:41.815Z,7.76
2023-03-27T17:10:11.867Z,7.72
2023-03-27T17:12:40.353Z,7.43
2023-03-27T17:15:10.534Z,7.49
2023-03-27T17:17:38.454Z,7.45
2023-03-27T17:20:09.316Z,7.59
2023-03-27T17:22:52.991Z,7.76
2023-03-27T17:25:22.380Z,7.48
2023-03-27T17:27:52.604Z,7.50
2023-03-27T17:30:34.683Z,7.43
2023-03-27T17:33:06.642Z,7.39
2023-03-27T17:35:34.639Z,7.33
2023-03-27T17:38:03.280Z,7.18
2023-03-27T17:40:32.496Z,7.34
2023-03-27T17:43:00.581Z,7.21
2023-03-27T17:45:28.452Z,7.14
2023-03-27T17:47:56.267Z,7.08
2023-03-27T17:50:24.217Z,7.14
2023-03-27T17:52:52.007Z,7.01
2023-03-27T17:55:19.801Z,7.10
2023-03-27T17:58:02.094Z,6.82
2023-03-27T18:00:37.790Z,6.81
2023-03-27T18:03:07.741Z,6.61
2023-03-27T18:05:39.752Z,6.63
2023-03-27T18:08:10.758Z,6.66
2023-03-27T18:10:38.866Z,6.74
2023-03-27T18:13:08.214Z,6.52
2023-03-27T18:15:35.978Z,6.50
2023-03-27T18:18:03.868Z,6.52
2023-03-27T18:20:31.665Z,6.38
2023-03-27T18:22:59.705Z,6.55
2023-03-27T18:25:27.626Z,6.27
2023-03-27T18:27:55.851Z,6.32
2023-03-27T18:30:26.465Z,6.10
2023-03-27T18:32:54.107Z,6.20
2023-03-27T18:35:22.033Z,6.25
2023-03-27T18:37:49.886Z,6.21
2023-03-27T18:40:19.624Z,5.99
2023-03-27T18:42:47.586Z,6.14
2023-03-27T18:45:18.565Z,5.89
2023-03-27T18:47:47.830Z,6.31
2023-03-27T18:50:16.758Z,6.10
2023-03-27T18:52:44.951Z,6.13
2023-03-27T18:55:13.416Z,6.35
2023-03-27T18:57:41.439Z,6.36
2023-03-27T19:00:18.165Z,6.33
2023-03-27T19:02:49.116Z,6.34
2023-03-27T19:05:25.454Z,6.38
2023-03-27T19:07:59.240Z,6.08
2023-03-27T19:10:27.154Z,6.25
2023-03-27T19:12:55.131Z,6.06
2023-03-27T19:15:23.068Z,5.85
2023-03-27T19:17:54.811Z,5.99
2023-03-27T19:20:25.133Z,5.95
2023-03-27T19:22:52.975Z,6.02
2023-03-27T19:25:21.506Z,6.03
2023-03-27T19:27:49.316Z,5.68
2023-03-27T19:30:31.084Z,5.99
2023-03-27T19:33:00.700Z,5.72
2023-03-27T19:35:28.824Z,5.76
2023-03-27T19:37:57.936Z,5.67
2023-03-27T19:40:25.777Z,5.80
2023-03-27T19:42:53.631Z,5.70
2023-03-27T19:45:21.489Z,6.03
2023-03-27T19:47:50.784Z,5.99
2023-03-27T19:50:22.715Z,5.90
2023-03-27T19:53:01.524Z,5.94
2023-03-27T19:55:35.788Z,5.82
2023-03-27T19:58:03.632Z,5.76
2023-03-27T20:00:32.128Z,5.46
2023-03-27T20:03:00.169Z,5.42
2023-03-27T20:05:30.588Z,5.57
2023-03-27T20:07:58.410Z,5.64
2023-03-27T20:10:27.053Z,5.78
2023-03-27T20:12:54.907Z,5.86
2023-03-27T20:15:22.825Z,5.86
2023-03-27T20:17:50.744Z,5.79
2023-03-27T20:20:19.991Z,5.67
2023-03-27T20:22:57.862Z,5.72
2023-03-27T20:25:28.272Z,5.33
2023-03-27T20:27:56.308Z,5.61
2023-03-27T20:30:24.089Z,5.33
2023-03-27T20:32:53.090Z,5.15
2023-03-27T20:35:32.435Z,5.43
2023-03-27T20:38:04.804Z,5.35
2023-03-27T20:40:53.002Z,5.25
2023-03-27T20:43:22.862Z,5.18
2023-03-27T20:45:53.090Z,5.48
2023-03-27T20:48:21.865Z,5.27
2023-03-27T20:50:52.791Z,5.26
2023-03-27T20:53:30.347Z,5.44
2023-03-27T20:56:01.702Z,4.57
2023-03-27T20:58:32.663Z,4.67
2023-03-27T21:01:05.065Z,5.05
2023-03-27T21:03:35.148Z,4.71
2023-03-27T21:06:09.118Z,4.81
2023-03-27T21:08:41.383Z,5.01
2023-03-27T21:11:09.740Z,5.27
2023-03-27T21:13:37.917Z,5.16
2023-03-27T21:16:06.900Z,5.01
2023-03-27T21:18:36.787Z,4.99
2023-03-27T21:21:05.653Z,5.19
2023-03-27T21:23:34.727Z,4.71
2023-03-27T21:26:04.248Z,4.82
2023-03-27T21:28:32.374Z,4.95
2023-03-27T21:31:01.088Z,4.90
2023-03-27T21:33:28.929Z,4.99
2023-03-27T21:35:56.865Z,4.96
2023-03-27T21:38:24.862Z,4.95
2023-03-27T21:40:54.200Z,4.61
2023-03-27T21:43:23.448Z,4.80
2023-03-27T21:45:52.562Z,4.95
2023-03-27T21:48:20.739Z,5.09
2023-03-27T21:50:48.612Z,5.25
2023-03-27T21:53:16.922Z,5.18
2023-03-27T21:55:48.028Z,5.09
2023-03-27T21:58:15.865Z,5.08
2023-03-27T22:00:47.669Z,5.09
2023-03-27T22:03:15.748Z,5.11
2023-03-27T22:05:47.389Z,4.57
2023-03-27T22:08:19.500Z,4.90
2023-03-27T22:10:47.268Z,4.97
2023-03-27T22:13:15.578Z,4.92
2023-03-27T22:15:43.516Z,5.16
2023-03-27T22:18:12.958Z,5.16
2023-03-27T22:20:43.309Z,4.96
2023-03-27T22:23:11.209Z,4.51
2023-03-27T22:25:39.000Z,5.19
2023-03-27T22:28:07.003Z,4.94
2023-03-27T22:30:36.943Z,4.96
2023-03-27T22:33:04.901Z,5.08
2023-03-27T22:35:34.569Z,4.40
2023-03-27T22:38:03.245Z,4.51
2023-03-27T22:40:31.118Z,4.17
2023-03-27T22:42:58.924Z,4.76
2023-03-27T22:45:26.921Z,3.82
2023-03-27T22:47:54.838Z,4.23
2023-03-27T22:50:23.135Z,3.61
2023-03-27T22:52:52.631Z,3.64
2023-03-27T22:55:20.865Z,3.59
2023-03-27T22:57:48.690Z,3.45
2023-03-27T23:00:18.236Z,3.41
2023-03-27T23:02:46.246Z,3.58
2023-03-27T23:05:14.082Z,3.78
2023-03-27T23:07:42.275Z,3.78
2023-03-27T23:10:12.438Z,3.44
2023-03-27T23:12:40.431Z,3.79
2023-03-27T23:15:11.262Z,3.67
2023-03-27T23:17:38.903Z,3.54
2023-03-27T23:20:08.103Z,3.72
2023-03-27T23:22:35.964Z,3.52
2023-03-27T23:25:04.017Z,3.35
2023-03-27T23:27:33.628Z,3.23
2023-03-27T23:30:01.544Z,3.35
2023-03-27T23:32:29.946Z,3.04
2023-03-27T23:34:57.822Z,3.43
2023-03-27T23:37:28.810Z,3.53
2023-03-27T23:39:56.691Z,3.42
2023-03-27T23:42:24.674Z,3.01
2023-03-27T23:44:54.127Z,3.07
2023-03-27T23:47:21.942Z,3.12
2023-03-27T23:49:50.454Z,3.08
2023-03-27T23:52:18.433Z,3.64
2023-03-27T23:54:46.289Z,3.85
2023-03-27T23:57:14.224Z,3.51
2023-03-27T23:59:42.000Z,3.59
